Spar Pavo — LATR7 — position and weather

sailwx.info

Track history (hours):
 
Tides and Currents Weather Stations Pressure Air Temp Water Temp Dewpoint Dewpoint Depression Visibility Wind Speed Wind Dir Waves Ship Positions

Spar Pavo

Last reported at 2018-Apr-18 07:01 UTC. Time now 2018-Apr-26 01:44 UTC.
Position N 31°57' W 080°22'.

Length 200 m; draft 9.9 m.

Type: Cargo ship. MMSI: 258731000.

Date/timePositionNaut miles runAvg speedWind from/ knotsBaromVisibWave heightAir tempDewpointWater temp
2018-Apr-18 07:01N 31°57' W 080°22'1 9.3
2018-Apr-18 06:57N 31°57' W 080°23'4 8.6
2018-Apr-18 06:30N 31°56' W 080°27'4 8.8
2018-Apr-18 06:00N 31°56' W 080°32'4 8.9
2018-Apr-18 05:30N 31°56' W 080°37'4 8.3
2018-Apr-18 05:00N 31°57' W 080°42'5 9.0
2018-Apr-18 04:29N 31°60' W 080°47'611.6
2018-Apr-18 04:00N 32°02' W 080°53'510.3
2018-Apr-18 03:29N 32°04' W 080°58'4 7.5
2018-Apr-18 03:00N 32°05' W 081°03'1 2.1
2018-Apr-18 02:30N 32°05' W 081°04'0 0.0
2018-Apr-18 01:44N 32°05' W 081°04'0 0.0
2018-Apr-18 01:26N 32°05' W 081°04'0 0.0
2018-Apr-18 00:56N 32°05' W 081°04'0 0.0
2018-Apr-18 00:26N 32°05' W 081°04'0 0.0
2018-Apr-17 23:56N 32°05' W 081°04'0 0.0
2018-Apr-17 23:20N 32°05' W 081°04'0 0.0
2018-Apr-17 22:56N 32°05' W 081°04'0 0.0
2018-Apr-17 22:20N 32°05' W 081°04'0 0.0
2018-Apr-17 21:50N 32°05' W 081°04'0 0.0
2018-Apr-17 21:26N 32°05' W 081°04'0 0.0
2018-Apr-17 20:56N 32°05' W 081°04'0 0.0
2018-Apr-17 20:26N 32°05' W 081°04'0 0.0
2018-Apr-17 19:50N 32°05' W 081°04'0 0.0
2018-Apr-17 19:26N 32°05' W 081°04'0 0.0
2018-Apr-17 18:56N 32°05' W 081°04'0 0.0
2018-Apr-17 18:26N 32°05' W 081°04'0 0.0
2018-Apr-17 17:56N 32°05' W 081°04'0 0.0
2018-Apr-17 17:26N 32°05' W 081°04'0 0.0
2018-Apr-17 16:56N 32°05' W 081°04'0 0.0
2018-Apr-17 16:26N 32°05' W 081°04'0 0.0
2018-Apr-17 15:56N 32°05' W 081°04'0 0.0
2018-Apr-17 15:26N 32°05' W 081°04'0 0.0
2018-Apr-17 14:38N 32°05' W 081°04'0 0.0
2018-Apr-17 14:26N 32°05' W 081°04'0 0.0
2018-Apr-17 13:50N 32°05' W 081°04'0 0.0
2018-Apr-17 13:20N 32°05' W 081°04'0 0.0
2018-Apr-17 12:50N 32°05' W 081°04'0 0.0
2018-Apr-17 12:26N 32°05' W 081°04'0 0.0
2018-Apr-17 11:44N 32°05' W 081°04'0 0.0
2018-Apr-17 10:26N 32°05' W 081°04'0 0.0
2018-Apr-17 09:26N 32°05' W 081°04'0 0.0
2018-Apr-17 08:44N 32°05' W 081°04'0 0.0
2018-Apr-17 08:08N 32°05' W 081°04'0 0.0
2018-Apr-17 07:50N 32°05' W 081°04'0 0.0
2018-Apr-17 07:26N 32°05' W 081°04'0 0.0
2018-Apr-17 06:56N 32°05' W 081°04'0 0.0
2018-Apr-17 06:26N 32°05' W 081°04'0 0.0
2018-Apr-17 05:56N 32°05' W 081°04'0 0.0
2018-Apr-17 05:26N 32°05' W 081°04'0 0.0
2018-Apr-17 04:56N 32°05' W 081°04'0 0.0
2018-Apr-17 04:26N 32°05' W 081°04'0 0.0
2018-Apr-17 03:56N 32°05' W 081°04'0 0.0
2018-Apr-17 03:14N 32°05' W 081°04'0 0.0
2018-Apr-17 02:56N 32°05' W 081°04'0 0.0
2018-Apr-17 02:26N 32°05' W 081°04'0 0.0
2018-Apr-17 01:56N 32°05' W 081°04'0 0.0
2018-Apr-17 01:26N 32°05' W 081°04'0 0.0
2018-Apr-17 00:56N 32°05' W 081°04'0 0.0
2018-Apr-17 00:20N 32°05' W 081°04'0 0.0
2018-Apr-16 23:56N 32°05' W 081°04'0 0.0
2018-Apr-16 23:26N 32°05' W 081°04'0 0.0
2018-Apr-16 22:56N 32°05' W 081°04'0 0.0
2018-Apr-16 22:26N 32°05' W 081°04'0 0.0
2018-Apr-16 21:50N 32°05' W 081°04'0 0.0
2018-Apr-16 21:26N 32°05' W 081°04'0 0.0
2018-Apr-16 20:56N 32°05' W 081°04'0 0.0
2018-Apr-16 20:14N 32°05' W 081°04'0 0.0
2018-Apr-16 19:44N 32°05' W 081°04'0 0.0
2018-Apr-16 19:14N 32°05' W 081°04'0 0.0
2018-Apr-16 18:50N 32°05' W 081°04'0 0.0
2018-Apr-16 18:26N 32°05' W 081°04'0 0.0
2018-Apr-16 17:50N 32°05' W 081°04'0 0.0
2018-Apr-16 17:26N 32°05' W 081°04'0 0.0
2018-Apr-16 16:44N 32°05' W 081°04'0 0.0
2018-Apr-16 16:26N 32°05' W 081°04'0 0.0
2018-Apr-16 15:56N 32°05' W 081°04'0 0.0
2018-Apr-16 15:20N 32°05' W 081°04'0 0.0
2018-Apr-16 14:56N 32°05' W 081°04'0 0.0
2018-Apr-16 14:26N 32°05' W 081°04'0 0.0
2018-Apr-16 13:50N 32°05' W 081°04'0 0.0
2018-Apr-16 13:26N 32°05' W 081°04'0 0.0
2018-Apr-16 12:56N 32°05' W 081°04'0 0.0
2018-Apr-16 12:26N 32°05' W 081°04'0 0.0
2018-Apr-16 11:56N 32°05' W 081°04'0 0.0
2018-Apr-16 11:26N 32°05' W 081°04'0 0.0
2018-Apr-16 10:56N 32°05' W 081°04'0 0.0
2018-Apr-16 10:26N 32°05' W 081°04'0 0.0
2018-Apr-16 09:56N 32°05' W 081°04'0 0.0
2018-Apr-16 09:20N 32°05' W 081°04'0 0.0
2018-Apr-16 08:56N 32°05' W 081°04'0 0.0
2018-Apr-16 08:26N 32°05' W 081°04'0 0.0
2018-Apr-16 07:56N 32°05' W 081°04'0 0.0
2018-Apr-16 07:26N 32°05' W 081°04'0 0.0
2018-Apr-16 06:50N 32°05' W 081°04'0 0.0
2018-Apr-16 06:02N 32°05' W 081°04'0 0.0
2018-Apr-16 05:56N 32°05' W 081°04'0 0.0
2018-Apr-16 05:20N 32°05' W 081°04'0 0.0
2018-Apr-16 04:38N 32°05' W 081°04'0 0.0
2018-Apr-16 04:26N 32°05' W 081°04'0 0.0
2018-Apr-16 03:50N 32°05' W 081°04'0 0.0
2018-Apr-16 03:14N 32°05' W 081°04'0 0.0
2018-Apr-16 02:56N 32°05' W 081°04'0 0.0
2018-Apr-16 02:20N 32°05' W 081°04'0 0.0
2018-Apr-16 01:56N 32°05' W 081°04'0 0.0
2018-Apr-16 01:26N 32°05' W 081°04'0 0.0
2018-Apr-16 00:56N 32°05' W 081°04'0 0.0
2018-Apr-16 00:26N 32°05' W 081°04'0 0.0
2018-Apr-15 23:50N 32°05' W 081°04'0 0.0
2018-Apr-15 23:20N 32°05' W 081°04'0 0.0
2018-Apr-15 22:56N 32°05' W 081°04'0 0.0
2018-Apr-15 22:26N 32°05' W 081°04'0 0.0
2018-Apr-15 21:56N 32°05' W 081°04'0 0.0
2018-Apr-15 21:26N 32°05' W 081°04'0 0.0
2018-Apr-15 20:56N 32°05' W 081°04'0 0.0
2018-Apr-15 20:26N 32°05' W 081°04'0 0.0
2018-Apr-15 19:56N 32°05' W 081°04'0 0.0
2018-Apr-15 19:20N 32°05' W 081°04'0 0.0
2018-Apr-15 18:56N 32°05' W 081°04'0 0.0
2018-Apr-15 18:20N 32°05' W 081°04'0 0.0
2018-Apr-15 17:50N 32°05' W 081°04'0 0.0
2018-Apr-15 17:20N 32°05' W 081°04'0 0.0
2018-Apr-15 16:56N 32°05' W 081°04'0 0.0
2018-Apr-15 16:14N 32°05' W 081°04'0 0.0
2018-Apr-15 15:50N 32°05' W 081°04'0 0.0
2018-Apr-15 15:20N 32°05' W 081°04'0 0.0
2018-Apr-15 14:50N 32°05' W 081°04'0 0.0
2018-Apr-15 14:20N 32°05' W 081°04'0 0.0
2018-Apr-15 13:56N 32°05' W 081°04'0 0.0
2018-Apr-15 13:26N 32°05' W 081°04'0 0.0
2018-Apr-15 12:56N 32°05' W 081°04'0 0.0
2018-Apr-15 12:14N 32°05' W 081°04'0 0.0
2018-Apr-15 11:56N 32°05' W 081°04'0 0.0
2018-Apr-15 11:26N 32°05' W 081°04'0 0.0
2018-Apr-15 10:56N 32°05' W 081°04'0 0.0
2018-Apr-15 10:26N 32°05' W 081°04'0 0.0
2018-Apr-15 09:50N 32°05' W 081°04'0 0.0
2018-Apr-15 09:26N 32°05' W 081°04'0 0.0
2018-Apr-15 08:56N 32°05' W 081°04'0 0.0
2018-Apr-15 08:26N 32°05' W 081°04'0 0.0
2018-Apr-15 07:08N 32°05' W 081°04'0 0.0
2018-Apr-15 06:56N 32°05' W 081°04'0 0.0
2018-Apr-15 06:20N 32°05' W 081°04'0 0.0
2018-Apr-15 05:56N 32°05' W 081°04'0 0.0
2018-Apr-15 04:14N 32°05' W 081°04'0 0.0
2018-Apr-15 03:56N 32°05' W 081°04'0 0.0
2018-Apr-15 03:26N 32°05' W 081°04'0 0.0
2018-Apr-15 02:50N 32°05' W 081°04'0 0.0
2018-Apr-15 02:20N 32°05' W 081°04'0 0.0
2018-Apr-15 01:56N 32°05' W 081°04'0 0.0
2018-Apr-15 01:26N 32°05' W 081°04'0 0.0
2018-Apr-15 00:56N 32°05' W 081°04'0 0.0
2018-Apr-15 00:14N 32°05' W 081°04'0 0.0
2018-Apr-14 23:56N 32°05' W 081°04'0 0.0
2018-Apr-14 23:20N 32°05' W 081°04'0 0.0
2018-Apr-14 22:56N 32°05' W 081°04'0 0.0
2018-Apr-14 22:14N 32°05' W 081°04'0 0.0
2018-Apr-14 21:50N 32°05' W 081°04'0 0.0
2018-Apr-14 21:26N 32°05' W 081°04'0 0.0
2018-Apr-14 20:50N 32°05' W 081°04'0 0.0
2018-Apr-14 20:26N 32°05' W 081°04'0 0.0
2018-Apr-14 19:56N 32°05' W 081°04'0 0.0
2018-Apr-14 19:26N 32°05' W 081°04'0 0.0
2018-Apr-14 18:56N 32°05' W 081°04'0 0.0
2018-Apr-14 18:20N 32°05' W 081°04'0 0.0
2018-Apr-14 17:56N 32°05' W 081°04'0 0.0
2018-Apr-14 17:26N 32°05' W 081°04'0 0.0
2018-Apr-14 16:56N 32°05' W 081°04'0 0.0
2018-Apr-14 16:26N 32°05' W 081°04'0 0.0
2018-Apr-14 15:56N 32°05' W 081°04'0 0.0
2018-Apr-14 15:20N 32°05' W 081°04'0 0.0
2018-Apr-14 14:56N 32°05' W 081°04'0 0.0
2018-Apr-14 14:20N 32°05' W 081°04'0 0.0
2018-Apr-14 13:38N 32°05' W 081°04'0 0.0
2018-Apr-14 13:26N 32°05' W 081°04'0 0.0
2018-Apr-14 12:50N 32°05' W 081°04'0 0.0
2018-Apr-14 12:26N 32°05' W 081°04'0 0.0
2018-Apr-14 11:56N 32°05' W 081°04'0 0.0
2018-Apr-14 11:14N 32°05' W 081°04'0 0.0
2018-Apr-14 10:56N 32°05' W 081°04'0 0.0
2018-Apr-14 09:26N 32°05' W 081°04'0 0.0
2018-Apr-14 08:56N 32°05' W 081°04'0 0.0
2018-Apr-14 08:23N 32°05' W 081°04'0 0.0
2018-Apr-14 07:08N 32°05' W 081°04'0 0.1
2018-Apr-14 06:50N 32°05' W 081°04'0 0.0
2018-Apr-14 04:08N 32°05' W 081°04'0 0.0
2018-Apr-14 03:56N 32°05' W 081°04'0 0.0
2018-Apr-14 03:14N 32°05' W 081°04'0 0.0
2018-Apr-14 02:56N 32°05' W 081°04'0 0.0
2018-Apr-14 01:56N 32°05' W 081°04'0 0.0
2018-Apr-14 01:14N 32°05' W 081°04'0 0.0
2018-Apr-14 00:20N 32°05' W 081°04'0 0.0
2018-Apr-13 23:56N 32°05' W 081°04'0 0.0
2018-Apr-13 23:14N 32°05' W 081°04'0 0.0
2018-Apr-13 22:56N 32°05' W 081°04'0 0.0
2018-Apr-13 22:26N 32°05' W 081°04'0 0.0
2018-Apr-13 21:56N 32°05' W 081°04'0 0.0
2018-Apr-13 21:26N 32°05' W 081°04'0 0.0
2018-Apr-13 20:56N 32°05' W 081°04'0 0.0
2018-Apr-13 20:26N 32°05' W 081°04'0 0.0
2018-Apr-13 19:50N 32°05' W 081°04'0 0.0
2018-Apr-13 19:26N 32°05' W 081°04'0 0.0
2018-Apr-13 18:56N 32°05' W 081°04'0 0.0
2018-Apr-13 18:20N 32°05' W 081°04'0 0.0
2018-Apr-13 17:56N 32°05' W 081°04'0 0.0
2018-Apr-13 17:26N 32°05' W 081°04'0 0.0
2018-Apr-13 16:50N 32°05' W 081°04'0 0.0
2018-Apr-13 16:26N 32°05' W 081°04'0 0.0
2018-Apr-13 15:56N 32°05' W 081°04'0 0.0
2018-Apr-13 15:02N 32°05' W 081°04'0 0.0
2018-Apr-13 14:44N 32°05' W 081°04'0 0.0
2018-Apr-13 14:14N 32°05' W 081°04'0 0.0
2018-Apr-13 13:50N 32°05' W 081°04'0 0.0
2018-Apr-13 13:26N 32°05' W 081°04'0 0.0
2018-Apr-13 12:50N 32°05' W 081°04'0 0.0
2018-Apr-13 12:20N 32°05' W 081°04'0 0.0
2018-Apr-13 11:56N 32°05' W 081°04'0 0.0
2018-Apr-13 11:14N 32°05' W 081°04'0 0.0
2018-Apr-13 10:56N 32°05' W 081°04'0 0.0
2018-Apr-13 10:02N 32°05' W 081°04'0 0.0
2018-Apr-13 09:50N 32°05' W 081°04'0 0.0
2018-Apr-13 09:26N 32°05' W 081°04'0 0.0
2018-Apr-13 08:08N 32°05' W 081°04'0 0.0
2018-Apr-13 07:56N 32°05' W 081°04'0 0.0
2018-Apr-13 07:26N 32°05' W 081°04'0 0.0
2018-Apr-13 06:56N 32°05' W 081°04'0 0.0
2018-Apr-13 06:26N 32°05' W 081°04'0 0.0
2018-Apr-13 04:44N 32°05' W 081°04'0 0.0
2018-Apr-13 04:26N 32°05' W 081°04'0 0.0
2018-Apr-13 03:26N 32°05' W 081°04'0 0.0
2018-Apr-13 02:08N 32°05' W 081°04'0 0.0
2018-Apr-13 01:50N 32°05' W 081°04'0 0.0
2018-Apr-13 01:26N 32°05' W 081°04'0 0.0
2018-Apr-13 00:44N 32°05' W 081°04'0 0.0
2018-Apr-13 00:26N 32°05' W 081°04'0 0.0
2018-Apr-12 23:56N 32°05' W 081°04'0 0.0
2018-Apr-12 23:26N 32°05' W 081°04'0 0.0
2018-Apr-12 22:50N 32°05' W 081°04'0 0.0
2018-Apr-12 22:26N 32°05' W 081°04'0 0.0
2018-Apr-12 21:56N 32°05' W 081°04'0 0.0
2018-Apr-12 21:26N 32°05' W 081°04'0 0.0
2018-Apr-12 20:56N 32°05' W 081°04'0 0.0
2018-Apr-12 20:26N 32°05' W 081°04'0 0.0
2018-Apr-12 19:56N 32°05' W 081°04'0 0.0
2018-Apr-12 19:26N 32°05' W 081°04'0 0.0
2018-Apr-12 18:50N 32°05' W 081°04'0 0.0
2018-Apr-12 18:26N 32°05' W 081°04'0 0.0
2018-Apr-12 17:56N 32°05' W 081°04'0 0.0
2018-Apr-12 17:26N 32°05' W 081°04'0 0.0
2018-Apr-12 16:44N 32°05' W 081°04'0 0.0
2018-Apr-12 16:20N 32°05' W 081°04'0 0.0
2018-Apr-12 15:56N 32°05' W 081°04'0 0.0
2018-Apr-12 15:26N 32°05' W 081°04'0 0.0
2018-Apr-12 14:56N 32°05' W 081°04'0 0.0
2018-Apr-12 14:26N 32°05' W 081°04'0 0.0
2018-Apr-12 13:56N 32°05' W 081°04'0 0.0
2018-Apr-12 12:32N 32°05' W 081°04'0 0.0
2018-Apr-12 12:26N 32°05' W 081°04'0 0.0
2018-Apr-12 11:56N 32°05' W 081°04'0 0.0
2018-Apr-12 11:20N 32°05' W 081°04'0 0.0
2018-Apr-12 10:50N 32°05' W 081°04'0 0.0
2018-Apr-12 10:26N 32°05' W 081°04'0 0.0
2018-Apr-12 09:20N 32°05' W 081°04'0 0.0
2018-Apr-12 08:50N 32°05' W 081°04'0 0.0
2018-Apr-12 08:26N 32°05' W 081°04'0 0.0
2018-Apr-12 07:56N 32°05' W 081°04'0 0.0
2018-Apr-12 07:10N 32°05' W 081°04'0 0.0
2018-Apr-12 07:00N 32°05' W 081°04'0 0.0
2018-Apr-12 06:30N 32°05' W 081°04'0 0.2
2018-Apr-12 06:00N 32°05' W 081°04'3 6.5
2018-Apr-12 05:30N 32°06' W 081°00'510.5
2018-Apr-12 05:00N 32°02' W 080°55'510.2
2018-Apr-12 04:30N 32°02' W 080°50'510.7
2018-Apr-12 04:00N 31°59' W 080°45'4 8.8
2018-Apr-12 03:30N 31°57' W 080°40'3 6.4
2018-Apr-12 03:00N 31°57' W 080°36'2 5.0
2018-Apr-12 02:30N 31°57' W 080°33'22 8.3
2018-Apr-11 23:52N 31°59' W 080°07'1 1.8
2018-Apr-11 23:26N 31°59' W 080°07'2 4.9
2018-Apr-11 22:55N 31°59' W 080°04'8 6.6
2018-Apr-11 21:40N 31°59' W 079°54'2 6.5
2018-Apr-11 21:25N 31°60' W 079°52'2 4.5
2018-Apr-11 21:00N 31°60' W 079°50'2 4.0
2018-Apr-11 20:30N 31°59' W 079°52'2 4.5
2018-Apr-11 20:00N 31°57' W 079°54'11 5.4
2018-Apr-11 18:02N 31°53' W 079°43'0 6.8
2018-Apr-11 18:00N 31°53' W 079°42'3 1.9
2018-Apr-11 16:34N 31°55' W 079°40'0 0.4
2018-Apr-11 16:30N 31°55' W 079°40'2 3.1
2018-Apr-11 16:00N 31°54' W 079°42'2 3.6
2018-Apr-11 15:28N 31°53' W 079°43'2 3.8
2018-Apr-11 15:00N 31°51' W 079°45'2 3.7
2018-Apr-11 14:30N 31°50' W 079°46'2 3.9
2018-Apr-11 14:00N 31°48' W 079°47'2 3.9
2018-Apr-11 13:23N 31°46' W 079°48'2 3.7
2018-Apr-11 12:59N 31°45' W 079°49'3 3.6
2018-Apr-11 12:13N 31°42' W 079°50'1 3.7
2018-Apr-11 12:00N 31°41' W 079°50'  
Track history (hours):
 
Tides and Currents Weather Stations Pressure Air Temp Water Temp Dewpoint Dewpoint Depression Visibility Wind Speed Wind Dir Waves Ship Positions

Spar Pavo

Last reported at 2018-Apr-18 07:01 UTC. Time now 2018-Apr-26 01:44 UTC.
Position N 31°57' W 080°22'.

Length 200 m; draft 9.9 m.

Type: Cargo ship. MMSI: 258731000.

Date/timePositionNaut miles runAvg speedWind from/ knotsBaromVisibWave heightAir tempDewpointWater temp
2018-Apr-18 07:01N 31°57' W 080°22'1 9.3
2018-Apr-18 06:57N 31°57' W 080°23'4 8.6
2018-Apr-18 06:30N 31°56' W 080°27'4 8.8
2018-Apr-18 06:00N 31°56' W 080°32'4 8.9
2018-Apr-18 05:30N 31°56' W 080°37'4 8.3
2018-Apr-18 05:00N 31°57' W 080°42'5 9.0
2018-Apr-18 04:29N 31°60' W 080°47'611.6
2018-Apr-18 04:00N 32°02' W 080°53'510.3
2018-Apr-18 03:29N 32°04' W 080°58'4 7.5
2018-Apr-18 03:00N 32°05' W 081°03'1 2.1
2018-Apr-18 02:30N 32°05' W 081°04'0 0.0
2018-Apr-18 01:44N 32°05' W 081°04'0 0.0
2018-Apr-18 01:26N 32°05' W 081°04'0 0.0
2018-Apr-18 00:56N 32°05' W 081°04'0 0.0
2018-Apr-18 00:26N 32°05' W 081°04'0 0.0
2018-Apr-17 23:56N 32°05' W 081°04'0 0.0
2018-Apr-17 23:20N 32°05' W 081°04'0 0.0
2018-Apr-17 22:56N 32°05' W 081°04'0 0.0
2018-Apr-17 22:20N 32°05' W 081°04'0 0.0
2018-Apr-17 21:50N 32°05' W 081°04'0 0.0
2018-Apr-17 21:26N 32°05' W 081°04'0 0.0
2018-Apr-17 20:56N 32°05' W 081°04'0 0.0
2018-Apr-17 20:26N 32°05' W 081°04'0 0.0
2018-Apr-17 19:50N 32°05' W 081°04'0 0.0
2018-Apr-17 19:26N 32°05' W 081°04'0 0.0
2018-Apr-17 18:56N 32°05' W 081°04'0 0.0
2018-Apr-17 18:26N 32°05' W 081°04'0 0.0
2018-Apr-17 17:56N 32°05' W 081°04'0 0.0
2018-Apr-17 17:26N 32°05' W 081°04'0 0.0
2018-Apr-17 16:56N 32°05' W 081°04'0 0.0
2018-Apr-17 16:26N 32°05' W 081°04'0 0.0
2018-Apr-17 15:56N 32°05' W 081°04'0 0.0
2018-Apr-17 15:26N 32°05' W 081°04'0 0.0
2018-Apr-17 14:38N 32°05' W 081°04'0 0.0
2018-Apr-17 14:26N 32°05' W 081°04'0 0.0
2018-Apr-17 13:50N 32°05' W 081°04'0 0.0
2018-Apr-17 13:20N 32°05' W 081°04'0 0.0
2018-Apr-17 12:50N 32°05' W 081°04'0 0.0
2018-Apr-17 12:26N 32°05' W 081°04'0 0.0
2018-Apr-17 11:44N 32°05' W 081°04'0 0.0
2018-Apr-17 10:26N 32°05' W 081°04'0 0.0
2018-Apr-17 09:26N 32°05' W 081°04'0 0.0
2018-Apr-17 08:44N 32°05' W 081°04'0 0.0
2018-Apr-17 08:08N 32°05' W 081°04'0 0.0
2018-Apr-17 07:50N 32°05' W 081°04'0 0.0
2018-Apr-17 07:26N 32°05' W 081°04'0 0.0
2018-Apr-17 06:56N 32°05' W 081°04'0 0.0
2018-Apr-17 06:26N 32°05' W 081°04'0 0.0
2018-Apr-17 05:56N 32°05' W 081°04'0 0.0
2018-Apr-17 05:26N 32°05' W 081°04'0 0.0
2018-Apr-17 04:56N 32°05' W 081°04'0 0.0
2018-Apr-17 04:26N 32°05' W 081°04'0 0.0
2018-Apr-17 03:56N 32°05' W 081°04'0 0.0
2018-Apr-17 03:14N 32°05' W 081°04'0 0.0
2018-Apr-17 02:56N 32°05' W 081°04'0 0.0
2018-Apr-17 02:26N 32°05' W 081°04'0 0.0
2018-Apr-17 01:56N 32°05' W 081°04'0 0.0
2018-Apr-17 01:26N 32°05' W 081°04'0 0.0
2018-Apr-17 00:56N 32°05' W 081°04'0 0.0
2018-Apr-17 00:20N 32°05' W 081°04'0 0.0
2018-Apr-16 23:56N 32°05' W 081°04'0 0.0
2018-Apr-16 23:26N 32°05' W 081°04'0 0.0
2018-Apr-16 22:56N 32°05' W 081°04'0 0.0
2018-Apr-16 22:26N 32°05' W 081°04'0 0.0
2018-Apr-16 21:50N 32°05' W 081°04'0 0.0
2018-Apr-16 21:26N 32°05' W 081°04'0 0.0
2018-Apr-16 20:56N 32°05' W 081°04'0 0.0
2018-Apr-16 20:14N 32°05' W 081°04'0 0.0
2018-Apr-16 19:44N 32°05' W 081°04'0 0.0
2018-Apr-16 19:14N 32°05' W 081°04'0 0.0
2018-Apr-16 18:50N 32°05' W 081°04'0 0.0
2018-Apr-16 18:26N 32°05' W 081°04'0 0.0
2018-Apr-16 17:50N 32°05' W 081°04'0 0.0
2018-Apr-16 17:26N 32°05' W 081°04'0 0.0
2018-Apr-16 16:44N 32°05' W 081°04'0 0.0
2018-Apr-16 16:26N 32°05' W 081°04'0 0.0
2018-Apr-16 15:56N 32°05' W 081°04'0 0.0
2018-Apr-16 15:20N 32°05' W 081°04'0 0.0
2018-Apr-16 14:56N 32°05' W 081°04'0 0.0
2018-Apr-16 14:26N 32°05' W 081°04'0 0.0
2018-Apr-16 13:50N 32°05' W 081°04'0 0.0
2018-Apr-16 13:26N 32°05' W 081°04'0 0.0
2018-Apr-16 12:56N 32°05' W 081°04'0 0.0
2018-Apr-16 12:26N 32°05' W 081°04'0 0.0
2018-Apr-16 11:56N 32°05' W 081°04'0 0.0
2018-Apr-16 11:26N 32°05' W 081°04'0 0.0
2018-Apr-16 10:56N 32°05' W 081°04'0 0.0
2018-Apr-16 10:26N 32°05' W 081°04'0 0.0
2018-Apr-16 09:56N 32°05' W 081°04'0 0.0
2018-Apr-16 09:20N 32°05' W 081°04'0 0.0
2018-Apr-16 08:56N 32°05' W 081°04'0 0.0
2018-Apr-16 08:26N 32°05' W 081°04'0 0.0
2018-Apr-16 07:56N 32°05' W 081°04'0 0.0
2018-Apr-16 07:26N 32°05' W 081°04'0 0.0
2018-Apr-16 06:50N 32°05' W 081°04'0 0.0
2018-Apr-16 06:02N 32°05' W 081°04'0 0.0
2018-Apr-16 05:56N 32°05' W 081°04'0 0.0
2018-Apr-16 05:20N 32°05' W 081°04'0 0.0
2018-Apr-16 04:38N 32°05' W 081°04'0 0.0
2018-Apr-16 04:26N 32°05' W 081°04'0 0.0
2018-Apr-16 03:50N 32°05' W 081°04'0 0.0
2018-Apr-16 03:14N 32°05' W 081°04'0 0.0
2018-Apr-16 02:56N 32°05' W 081°04'0 0.0
2018-Apr-16 02:20N 32°05' W 081°04'0 0.0
2018-Apr-16 01:56N 32°05' W 081°04'0 0.0
2018-Apr-16 01:26N 32°05' W 081°04'0 0.0
2018-Apr-16 00:56N 32°05' W 081°04'0 0.0
2018-Apr-16 00:26N 32°05' W 081°04'0 0.0
2018-Apr-15 23:50N 32°05' W 081°04'0 0.0
2018-Apr-15 23:20N 32°05' W 081°04'0 0.0
2018-Apr-15 22:56N 32°05' W 081°04'0 0.0
2018-Apr-15 22:26N 32°05' W 081°04'0 0.0
2018-Apr-15 21:56N 32°05' W 081°04'0 0.0
2018-Apr-15 21:26N 32°05' W 081°04'0 0.0
2018-Apr-15 20:56N 32°05' W 081°04'0 0.0
2018-Apr-15 20:26N 32°05' W 081°04'0 0.0
2018-Apr-15 19:56N 32°05' W 081°04'0 0.0
2018-Apr-15 19:20N 32°05' W 081°04'0 0.0
2018-Apr-15 18:56N 32°05' W 081°04'0 0.0
2018-Apr-15 18:20N 32°05' W 081°04'0 0.0
2018-Apr-15 17:50N 32°05' W 081°04'0 0.0
2018-Apr-15 17:20N 32°05' W 081°04'0 0.0
2018-Apr-15 16:56N 32°05' W 081°04'0 0.0
2018-Apr-15 16:14N 32°05' W 081°04'0 0.0
2018-Apr-15 15:50N 32°05' W 081°04'0 0.0
2018-Apr-15 15:20N 32°05' W 081°04'0 0.0
2018-Apr-15 14:50N 32°05' W 081°04'0 0.0
2018-Apr-15 14:20N 32°05' W 081°04'0 0.0
2018-Apr-15 13:56N 32°05' W 081°04'0 0.0
2018-Apr-15 13:26N 32°05' W 081°04'0 0.0
2018-Apr-15 12:56N 32°05' W 081°04'0 0.0
2018-Apr-15 12:14N 32°05' W 081°04'0 0.0
2018-Apr-15 11:56N 32°05' W 081°04'0 0.0
2018-Apr-15 11:26N 32°05' W 081°04'0 0.0
2018-Apr-15 10:56N 32°05' W 081°04'0 0.0
2018-Apr-15 10:26N 32°05' W 081°04'0 0.0
2018-Apr-15 09:50N 32°05' W 081°04'0 0.0
2018-Apr-15 09:26N 32°05' W 081°04'0 0.0
2018-Apr-15 08:56N 32°05' W 081°04'0 0.0
2018-Apr-15 08:26N 32°05' W 081°04'0 0.0
2018-Apr-15 07:08N 32°05' W 081°04'0 0.0
2018-Apr-15 06:56N 32°05' W 081°04'0 0.0
2018-Apr-15 06:20N 32°05' W 081°04'0 0.0
2018-Apr-15 05:56N 32°05' W 081°04'0 0.0
2018-Apr-15 04:14N 32°05' W 081°04'0 0.0
2018-Apr-15 03:56N 32°05' W 081°04'0 0.0
2018-Apr-15 03:26N 32°05' W 081°04'0 0.0
2018-Apr-15 02:50N 32°05' W 081°04'0 0.0
2018-Apr-15 02:20N 32°05' W 081°04'0 0.0
2018-Apr-15 01:56N 32°05' W 081°04'0 0.0
2018-Apr-15 01:26N 32°05' W 081°04'0 0.0
2018-Apr-15 00:56N 32°05' W 081°04'0 0.0
2018-Apr-15 00:14N 32°05' W 081°04'0 0.0
2018-Apr-14 23:56N 32°05' W 081°04'0 0.0
2018-Apr-14 23:20N 32°05' W 081°04'0 0.0
2018-Apr-14 22:56N 32°05' W 081°04'0 0.0
2018-Apr-14 22:14N 32°05' W 081°04'0 0.0
2018-Apr-14 21:50N 32°05' W 081°04'0 0.0
2018-Apr-14 21:26N 32°05' W 081°04'0 0.0
2018-Apr-14 20:50N 32°05' W 081°04'0 0.0
2018-Apr-14 20:26N 32°05' W 081°04'0 0.0
2018-Apr-14 19:56N 32°05' W 081°04'0 0.0
2018-Apr-14 19:26N 32°05' W 081°04'0 0.0
2018-Apr-14 18:56N 32°05' W 081°04'0 0.0
2018-Apr-14 18:20N 32°05' W 081°04'0 0.0
2018-Apr-14 17:56N 32°05' W 081°04'0 0.0
2018-Apr-14 17:26N 32°05' W 081°04'0 0.0
2018-Apr-14 16:56N 32°05' W 081°04'0 0.0
2018-Apr-14 16:26N 32°05' W 081°04'0 0.0
2018-Apr-14 15:56N 32°05' W 081°04'0 0.0
2018-Apr-14 15:20N 32°05' W 081°04'0 0.0
2018-Apr-14 14:56N 32°05' W 081°04'0 0.0
2018-Apr-14 14:20N 32°05' W 081°04'0 0.0
2018-Apr-14 13:38N 32°05' W 081°04'0 0.0
2018-Apr-14 13:26N 32°05' W 081°04'0 0.0
2018-Apr-14 12:50N 32°05' W 081°04'0 0.0
2018-Apr-14 12:26N 32°05' W 081°04'0 0.0
2018-Apr-14 11:56N 32°05' W 081°04'0 0.0
2018-Apr-14 11:14N 32°05' W 081°04'0 0.0
2018-Apr-14 10:56N 32°05' W 081°04'0 0.0
2018-Apr-14 09:26N 32°05' W 081°04'0 0.0
2018-Apr-14 08:56N 32°05' W 081°04'0 0.0
2018-Apr-14 08:23N 32°05' W 081°04'0 0.0
2018-Apr-14 07:08N 32°05' W 081°04'0 0.1
2018-Apr-14 06:50N 32°05' W 081°04'0 0.0
2018-Apr-14 04:08N 32°05' W 081°04'0 0.0
2018-Apr-14 03:56N 32°05' W 081°04'0 0.0
2018-Apr-14 03:14N 32°05' W 081°04'0 0.0
2018-Apr-14 02:56N 32°05' W 081°04'0 0.0
2018-Apr-14 01:56N 32°05' W 081°04'0 0.0
2018-Apr-14 01:14N 32°05' W 081°04'0 0.0
2018-Apr-14 00:20N 32°05' W 081°04'0 0.0
2018-Apr-13 23:56N 32°05' W 081°04'0 0.0
2018-Apr-13 23:14N 32°05' W 081°04'0 0.0
2018-Apr-13 22:56N 32°05' W 081°04'0 0.0
2018-Apr-13 22:26N 32°05' W 081°04'0 0.0
2018-Apr-13 21:56N 32°05' W 081°04'0 0.0
2018-Apr-13 21:26N 32°05' W 081°04'0 0.0
2018-Apr-13 20:56N 32°05' W 081°04'0 0.0
2018-Apr-13 20:26N 32°05' W 081°04'0 0.0
2018-Apr-13 19:50N 32°05' W 081°04'0 0.0
2018-Apr-13 19:26N 32°05' W 081°04'0 0.0
2018-Apr-13 18:56N 32°05' W 081°04'0 0.0
2018-Apr-13 18:20N 32°05' W 081°04'0 0.0
2018-Apr-13 17:56N 32°05' W 081°04'0 0.0
2018-Apr-13 17:26N 32°05' W 081°04'0 0.0
2018-Apr-13 16:50N 32°05' W 081°04'0 0.0
2018-Apr-13 16:26N 32°05' W 081°04'0 0.0
2018-Apr-13 15:56N 32°05' W 081°04'0 0.0
2018-Apr-13 15:02N 32°05' W 081°04'0 0.0
2018-Apr-13 14:44N 32°05' W 081°04'0 0.0
2018-Apr-13 14:14N 32°05' W 081°04'0 0.0
2018-Apr-13 13:50N 32°05' W 081°04'0 0.0
2018-Apr-13 13:26N 32°05' W 081°04'0 0.0
2018-Apr-13 12:50N 32°05' W 081°04'0 0.0
2018-Apr-13 12:20N 32°05' W 081°04'0 0.0
2018-Apr-13 11:56N 32°05' W 081°04'0 0.0
2018-Apr-13 11:14N 32°05' W 081°04'0 0.0
2018-Apr-13 10:56N 32°05' W 081°04'0 0.0
2018-Apr-13 10:02N 32°05' W 081°04'0 0.0
2018-Apr-13 09:50N 32°05' W 081°04'0 0.0
2018-Apr-13 09:26N 32°05' W 081°04'0 0.0
2018-Apr-13 08:08N 32°05' W 081°04'0 0.0
2018-Apr-13 07:56N 32°05' W 081°04'0 0.0
2018-Apr-13 07:26N 32°05' W 081°04'0 0.0
2018-Apr-13 06:56N 32°05' W 081°04'0 0.0
2018-Apr-13 06:26N 32°05' W 081°04'0 0.0
2018-Apr-13 04:44N 32°05' W 081°04'0 0.0
2018-Apr-13 04:26N 32°05' W 081°04'0 0.0
2018-Apr-13 03:26N 32°05' W 081°04'0 0.0
2018-Apr-13 02:08N 32°05' W 081°04'0 0.0
2018-Apr-13 01:50N 32°05' W 081°04'0 0.0
2018-Apr-13 01:26N 32°05' W 081°04'0 0.0
2018-Apr-13 00:44N 32°05' W 081°04'0 0.0
2018-Apr-13 00:26N 32°05' W 081°04'0 0.0
2018-Apr-12 23:56N 32°05' W 081°04'0 0.0
2018-Apr-12 23:26N 32°05' W 081°04'0 0.0
2018-Apr-12 22:50N 32°05' W 081°04'0 0.0
2018-Apr-12 22:26N 32°05' W 081°04'0 0.0
2018-Apr-12 21:56N 32°05' W 081°04'0 0.0
2018-Apr-12 21:26N 32°05' W 081°04'0 0.0
2018-Apr-12 20:56N 32°05' W 081°04'0 0.0
2018-Apr-12 20:26N 32°05' W 081°04'0 0.0
2018-Apr-12 19:56N 32°05' W 081°04'0 0.0
2018-Apr-12 19:26N 32°05' W 081°04'0 0.0
2018-Apr-12 18:50N 32°05' W 081°04'0 0.0
2018-Apr-12 18:26N 32°05' W 081°04'0 0.0
2018-Apr-12 17:56N 32°05' W 081°04'0 0.0
2018-Apr-12 17:26N 32°05' W 081°04'0 0.0
2018-Apr-12 16:44N 32°05' W 081°04'0 0.0
2018-Apr-12 16:20N 32°05' W 081°04'0 0.0
2018-Apr-12 15:56N 32°05' W 081°04'0 0.0
2018-Apr-12 15:26N 32°05' W 081°04'0 0.0
2018-Apr-12 14:56N 32°05' W 081°04'0 0.0
2018-Apr-12 14:26N 32°05' W 081°04'0 0.0
2018-Apr-12 13:56N 32°05' W 081°04'0 0.0
2018-Apr-12 12:32N 32°05' W 081°04'0 0.0
2018-Apr-12 12:26N 32°05' W 081°04'0 0.0
2018-Apr-12 11:56N 32°05' W 081°04'0 0.0
2018-Apr-12 11:20N 32°05' W 081°04'0 0.0
2018-Apr-12 10:50N 32°05' W 081°04'0 0.0
2018-Apr-12 10:26N 32°05' W 081°04'0 0.0
2018-Apr-12 09:20N 32°05' W 081°04'0 0.0
2018-Apr-12 08:50N 32°05' W 081°04'0 0.0
2018-Apr-12 08:26N 32°05' W 081°04'0 0.0
2018-Apr-12 07:56N 32°05' W 081°04'0 0.0
2018-Apr-12 07:10N 32°05' W 081°04'0 0.0
2018-Apr-12 07:00N 32°05' W 081°04'0 0.0
2018-Apr-12 06:30N 32°05' W 081°04'0 0.2
2018-Apr-12 06:00N 32°05' W 081°04'3 6.5
2018-Apr-12 05:30N 32°06' W 081°00'510.5
2018-Apr-12 05:00N 32°02' W 080°55'510.2
2018-Apr-12 04:30N 32°02' W 080°50'510.7
2018-Apr-12 04:00N 31°59' W 080°45'4 8.8
2018-Apr-12 03:30N 31°57' W 080°40'3 6.4
2018-Apr-12 03:00N 31°57' W 080°36'2 5.0
2018-Apr-12 02:30N 31°57' W 080°33'22 8.3
2018-Apr-11 23:52N 31°59' W 080°07'1 1.8
2018-Apr-11 23:26N 31°59' W 080°07'2 4.9
2018-Apr-11 22:55N 31°59' W 080°04'8 6.6
2018-Apr-11 21:40N 31°59' W 079°54'2 6.5
2018-Apr-11 21:25N 31°60' W 079°52'2 4.5
2018-Apr-11 21:00N 31°60' W 079°50'2 4.0
2018-Apr-11 20:30N 31°59' W 079°52'2 4.5
2018-Apr-11 20:00N 31°57' W 079°54'11 5.4
2018-Apr-11 18:02N 31°53' W 079°43'0 6.8
2018-Apr-11 18:00N 31°53' W 079°42'3 1.9
2018-Apr-11 16:34N 31°55' W 079°40'0 0.4
2018-Apr-11 16:30N 31°55' W 079°40'2 3.1
2018-Apr-11 16:00N 31°54' W 079°42'2 3.6
2018-Apr-11 15:28N 31°53' W 079°43'2 3.8
2018-Apr-11 15:00N 31°51' W 079°45'2 3.7
2018-Apr-11 14:30N 31°50' W 079°46'2 3.9
2018-Apr-11 14:00N 31°48' W 079°47'2 3.9
2018-Apr-11 13:23N 31°46' W 079°48'2 3.7
2018-Apr-11 12:59N 31°45' W 079°49'3 3.6
2018-Apr-11 12:13N 31°42' W 079°50'1 3.7
2018-Apr-11 12:00N 31°41' W 079°50'  

Dump ship's entire track history